Time;durP1;ratioP1;P1;durP2;ratioP2;P2;SDS_P1;SDS_P2;PMS_P1;PMS_P2;Temp;Humidity;BMP_temperature;BMP_pressure;BME280_temperature;BME280_humidity;BME280_pressure;Samples;Min_cycle;Max_cycle;Signal;HPM_P1;HPM_P2
2021/05/06 00:01:09;;;;;;;2.40;1.30;;;7.70;1.00;;;;;;5110443;28;20801;-71
2021/05/06 00:29:39;;;;;;;4.57;1.00;;;7.70;99.90;;;;;;5111312;28;20614;-71
2021/05/06 00:34:07;;;;;;;3.50;1.50;;;7.60;99.90;;;;;;5114472;28;20436;-71
2021/05/06 00:36:35;;;;;;;7.10;1.53;;;7.70;99.90;;;;;;5115326;28;20863;-71
2021/05/06 00:39:05;;;;;;;4.00;1.33;;;7.60;99.90;;;;;;5114405;28;20442;-71
2021/05/06 00:41:45;;;;;;;2.40;0.97;;;7.60;1.00;;;;;;5115256;28;20446;-71
2021/05/06 00:55:22;;;;;;;2.20;1.63;;;7.60;99.90;;;;;;5114795;28;20796;-71
2021/05/06 00:58:01;;;;;;;3.80;2.70;;;7.60;1.00;;;;;;5114117;28;20444;-71
2021/05/06 01:00:43;;;;;;;1.60;1.50;;;7.50;1.00;;;;;;5114405;28;20436;-71
2021/05/06 01:03:19;;;;;;;1.70;1.20;;;7.40;99.90;;;;;;5114541;28;20526;-71
2021/05/06 01:05:50;;;;;;;1.63;1.40;;;7.40;99.90;;;;;;5113947;28;20484;-71
2021/05/06 01:08:21;;;;;;;2.23;1.30;;;7.40;99.90;;;;;;5101179;28;20464;-71
2021/05/06 01:11:01;;;;;;;1.43;1.33;;;7.40;99.90;;;;;;5102845;28;20448;-70
2021/05/06 01:13:29;;;;;;;1.77;1.13;;;7.40;99.90;;;;;;5110545;28;20436;-71
2021/05/06 01:15:56;;;;;;;2.70;1.70;;;7.40;99.90;;;;;;5113892;28;20451;-71
2021/05/06 01:18:23;;;;;;;4.27;1.80;;;7.30;99.90;;;;;;5114126;28;20500;-70
2021/05/06 01:20:54;;;;;;;3.37;1.90;;;7.30;1.00;;;;;;5113088;28;20518;-71
2021/05/06 01:23:22;;;;;;;1.53;1.10;;;7.40;99.90;;;;;;5114384;28;20444;-71
2021/05/06 01:25:53;;;;;;;1.40;1.10;;;7.50;99.90;;;;;;5113633;28;20454;-70
2021/05/06 01:28:22;;;;;;;2.70;1.30;;;7.50;99.90;;;;;;5113511;28;20482;-70
2021/05/06 01:30:52;;;;;;;2.40;1.40;;;7.60;99.90;;;;;;5113504;28;20601;-70
2021/05/06 01:33:26;;;;;;;1.60;1.30;;;7.70;49.30;;;;;;5113516;28;20447;-71
2021/05/06 01:35:56;;;;;;;1.90;1.30;;;7.50;99.90;;;;;;5113171;28;20772;-73
2021/05/06 01:38:37;;;;;;;1.47;1.33;;;7.50;99.90;;;;;;5113521;28;20432;-71
2021/05/06 01:44:02;;;;;;;1.67;1.43;;;7.50;1.00;;;;;;5077578;28;20945;-71
2021/05/06 01:46:52;;;;;;;1.50;1.37;;;7.50;16.10;;;;;;5113768;28;20482;-71
2021/05/06 01:49:33;;;;;;;4.00;1.53;;;7.40;1.00;;;;;;5113962;28;20435;-71
2021/05/06 01:57:35;;;;;;;2.47;1.77;;;7.50;99.90;;;;;;5112767;28;20431;-71
2021/05/06 02:00:08;;;;;;;1.73;1.37;;;7.60;1.00;;;;;;5112681;28;20463;-71
2021/05/06 02:02:34;;;;;;;1.43;1.33;;;7.60;99.90;;;;;;5113064;28;20439;-71
2021/05/06 02:05:01;;;;;;;2.57;1.47;;;7.60;1.00;;;;;;5112097;28;20436;-71
2021/05/06 02:07:28;;;;;;;1.90;1.43;;;7.80;31.00;;;;;;5113392;28;20472;-71
2021/05/06 02:09:54;;;;;;;2.00;1.50;;;7.80;1.00;;;;;;5112490;28;20444;-71
2021/05/06 02:12:21;;;;;;;5.13;1.80;;;7.80;1.00;;;;;;5112883;28;20830;-71
2021/05/06 02:14:52;;;;;;;2.07;1.60;;;7.80;1.00;;;;;;5112201;28;20463;-71
2021/05/06 02:17:18;;;;;;;5.50;1.53;;;7.70;99.90;;;;;;5113068;28;20463;-71
2021/05/06 02:19:47;;;;;;;2.90;1.60;;;7.90;99.90;;;;;;5113115;28;20464;-71
2021/05/06 02:22:15;;;;;;;1.50;1.40;;;7.80;97.80;;;;;;5112635;28;20448;-71
2021/05/06 02:24:43;;;;;;;2.43;1.63;;;7.80;90.30;;;;;;5112749;28;20574;-71
2021/05/06 02:27:09;;;;;;;2.07;1.87;;;7.80;99.90;;;;;;5111765;28;21090;-71
2021/05/06 02:29:36;;;;;;;2.43;1.50;;;7.80;99.90;;;;;;5112766;28;20448;-71
2021/05/06 02:32:02;;;;;;;3.10;1.60;;;7.90;99.90;;;;;;5112053;28;20581;-71
2021/05/06 02:34:29;;;;;;;3.93;1.60;;;7.90;1.00;;;;;;5112499;28;21073;-73
2021/05/06 02:36:55;;;;;;;1.80;1.70;;;7.80;1.00;;;;;;5112025;28;21029;-72
2021/05/06 02:39:22;;;;;;;2.00;1.40;;;7.90;1.00;;;;;;5112420;28;20441;-72
2021/05/06 02:41:49;;;;;;;1.87;1.30;;;7.90;99.90;;;;;;5111733;28;20443;-71
2021/05/06 02:44:15;;;;;;;3.10;1.70;;;7.70;1.00;;;;;;5112274;28;20441;-71
2021/05/06 02:46:41;;;;;;;6.23;1.87;;;7.70;1.00;;;;;;5112089;28;20931;-71
2021/05/06 02:49:08;;;;;;;3.17;1.77;;;7.80;99.90;;;;;;5111833;28;20484;-72
2021/05/06 02:51:38;;;;;;;8.47;2.30;;;7.90;1.00;;;;;;5111269;28;20444;-72
2021/05/06 02:54:05;;;;;;;2.53;1.50;;;8.00;99.90;;;;;;5111495;28;20502;-72
2021/05/06 02:56:36;;;;;;;3.90;1.60;;;8.00;1.00;;;;;;5112228;28;20440;-72
2021/05/06 02:59:17;;;;;;;1.60;1.50;;;8.00;1.00;;;;;;5111625;28;20447;-71
2021/05/06 03:04:28;;;;;;;2.40;2.20;;;7.70;99.90;;;;;;5112429;28;20431;-71
2021/05/06 03:06:57;;;;;;;4.37;1.83;;;7.60;99.90;;;;;;5111695;28;20509;-71
2021/05/06 03:09:33;;;;;;;5.60;1.47;;;7.60;26.80;;;;;;5111936;28;20443;-71
2021/05/06 03:12:09;;;;;;;2.73;2.07;;;7.60;99.90;;;;;;5111329;28;20440;-71
2021/05/06 03:14:50;;;;;;;1.77;1.37;;;7.70;99.90;;;;;;5112245;28;20428;-71
2021/05/06 03:22:47;;;;;;;2.23;1.80;;;7.30;28.20;;;;;;5111718;28;20415;-71
2021/05/06 03:25:16;;;;;;;2.40;1.90;;;7.10;99.90;;;;;;5110764;28;20448;-70
2021/05/06 03:27:48;;;;;;;2.07;1.80;;;6.90;99.90;;;;;;5111883;28;20827;-70
2021/05/06 03:36:15;;;;;;;3.50;2.00;;;6.60;99.90;;;;;;5077809;28;20491;-68
2021/05/06 03:41:48;;;;;;;2.50;1.70;;;6.60;99.90;;;;;;5048022;28;20945;-70
2021/05/06 03:44:31;;;;;;;2.77;2.13;;;6.60;99.90;;;;;;5099984;28;20958;-69
2021/05/06 03:47:23;;;;;;;3.80;2.10;;;6.60;99.90;;;;;;5107337;28;20581;-70
2021/05/06 04:11:58;;;;;;;3.30;2.07;;;6.00;99.90;;;;;;5115041;28;20404;-70
2021/05/06 04:17:35;;;;;;;2.80;1.73;;;5.90;99.90;;;;;;5114987;28;20498;-69
2021/05/06 04:25:39;;;;;;;4.43;1.77;;;5.80;99.90;;;;;;5083538;28;20433;-71
2021/05/06 04:28:29;;;;;;;2.47;1.90;;;5.90;99.90;;;;;;5114586;28;20520;-71
2021/05/06 04:36:33;;;;;;;7.13;2.67;;;6.10;99.90;;;;;;5115140;28;20954;-71
2021/05/06 04:39:00;;;;;;;2.90;2.20;;;6.00;99.90;;;;;;5114705;28;20437;-71
2021/05/06 04:41:37;;;;;;;3.70;2.27;;;5.90;99.90;;;;;;5115253;28;20434;-71
2021/05/06 04:45:02;;;;;;;4.63;2.77;;;6.00;99.90;;;;;;5114354;28;20521;-71
2021/05/06 04:50:21;;;;;;;5.60;2.70;;;6.30;99.90;;;;;;5114217;28;20436;-70
2021/05/06 04:55:35;;;;;;;3.30;2.10;;;6.20;99.90;;;;;;5114730;28;20474;-71
2021/05/06 04:58:17;;;;;;;3.90;2.40;;;6.20;99.90;;;;;;5114021;28;20457;-71
2021/05/06 05:03:37;;;;;;;3.00;2.40;;;6.20;99.90;;;;;;5114578;28;20410;-71
2021/05/06 05:06:03;;;;;;;3.53;2.57;;;6.20;99.90;;;;;;5113928;28;20777;-70
2021/05/06 05:08:35;;;;;;;5.73;2.80;;;6.40;99.90;;;;;;5114634;28;20870;-71
2021/05/06 05:11:19;;;;;;;5.03;3.50;;;6.40;99.90;;;;;;5113899;28;20502;-70
2021/05/06 05:24:58;;;;;;;3.40;2.70;;;6.60;99.90;;;;;;5077382;28;20923;-72
2021/05/06 05:27:24;;;;;;;7.53;2.50;;;6.70;99.90;;;;;;5114456;28;20484;-71
2021/05/06 05:29:51;;;;;;;3.87;2.73;;;6.80;99.90;;;;;;5113977;28;20450;-71
2021/05/06 05:32:18;;;;;;;3.47;2.23;;;6.80;99.90;;;;;;5113609;28;20906;-72
2021/05/06 05:34:47;;;;;;;3.40;2.57;;;6.90;99.90;;;;;;5114076;28;21046;-72
2021/05/06 05:37:18;;;;;;;4.03;2.77;;;6.90;99.90;;;;;;5113253;28;20511;-72
2021/05/06 05:39:57;;;;;;;2.37;2.07;;;6.90;99.90;;;;;;5114157;28;20435;-72
2021/05/06 05:42:31;;;;;;;2.33;2.10;;;7.00;99.90;;;;;;5114218;28;20829;-72
2021/05/06 05:55:51;;;;;;;4.83;2.47;;;7.10;99.90;;;;;;5114273;28;20415;-72
2021/05/06 05:58:18;;;;;;;6.03;2.73;;;7.10;99.90;;;;;;5113523;28;20453;-72
2021/05/06 06:00:44;;;;;;;2.90;2.57;;;7.20;99.90;;;;;;5114109;28;20448;-71
2021/05/06 06:03:11;;;;;;;2.60;2.40;;;7.20;99.90;;;;;;5113336;28;20461;-72
2021/05/06 06:05:38;;;;;;;4.40;2.60;;;7.40;99.90;;;;;;5113787;28;20573;-72
2021/05/06 06:08:05;;;;;;;2.23;2.03;;;7.40;99.90;;;;;;5113702;28;20479;-72
2021/05/06 06:10:31;;;;;;;2.63;2.00;;;7.40;99.90;;;;;;5114700;28;20444;-72
2021/05/06 06:12:58;;;;;;;5.60;2.57;;;7.40;99.90;;;;;;5116050;28;20982;-72
2021/05/06 06:15:37;;;;;;;6.73;2.60;;;7.40;99.90;;;;;;5114137;28;20455;-72
2021/05/06 06:18:12;;;;;;;4.37;2.30;;;7.60;99.90;;;;;;5113935;28;20431;-72
2021/05/06 06:20:41;;;;;;;6.97;3.10;;;7.60;99.90;;;;;;5114231;28;20497;-73
2021/05/06 06:23:07;;;;;;;5.00;4.20;;;7.80;99.90;;;;;;5113951;28;20515;-73
2021/05/06 06:25:33;;;;;;;2.70;2.10;;;7.80;99.90;;;;;;5113534;28;20953;-73
2021/05/06 06:28:00;;;;;;;3.77;2.17;;;7.80;99.90;;;;;;5115891;28;20479;-73
2021/05/06 06:30:28;;;;;;;2.97;2.13;;;7.70;99.90;;;;;;5120690;28;20447;-73
2021/05/06 06:32:54;;;;;;;2.63;2.13;;;7.90;99.90;;;;;;5120689;28;20495;-72
2021/05/06 06:35:21;;;;;;;3.73;2.40;;;7.90;99.90;;;;;;5122943;28;21056;-72
2021/05/06 06:37:47;;;;;;;8.43;2.93;;;;;;;;;;5123346;28;20501;-73
2021/05/06 06:40:14;;;;;;;3.87;2.07;;;8.00;99.90;;;;;;5120608;28;20465;-73
2021/05/06 06:42:41;;;;;;;5.83;2.33;;;8.30;99.90;;;;;;5118229;28;20478;-72
2021/05/06 06:45:08;;;;;;;4.13;2.03;;;8.30;99.90;;;;;;5115533;28;20487;-73
2021/05/06 06:47:35;;;;;;;4.23;1.90;;;8.30;99.90;;;;;;5117138;28;20497;-71
2021/05/06 06:50:02;;;;;;;2.03;1.83;;;8.30;99.90;;;;;;5114367;28;20531;-67
2021/05/06 06:52:28;;;;;;;3.20;1.93;;;8.40;99.90;;;;;;5112884;28;20508;-71
2021/05/06 06:54:55;;;;;;;5.50;2.70;;;8.40;99.90;;;;;;5112139;28;20490;-72
2021/05/06 06:57:21;;;;;;;4.70;2.43;;;8.40;99.90;;;;;;5112039;28;20993;-71
2021/05/06 06:59:47;;;;;;;4.20;1.87;;;8.40;99.90;;;;;;5112691;28;20431;-72
2021/05/06 07:02:14;;;;;;;2.60;2.10;;;8.40;99.90;;;;;;5112084;28;20465;-72
2021/05/06 07:04:42;;;;;;;2.73;1.80;;;8.50;99.90;;;;;;5112365;28;20447;-72
2021/05/06 07:07:08;;;;;;;4.30;2.80;;;8.50;99.90;;;;;;5111551;28;20522;-71
2021/05/06 07:09:34;;;;;;;2.30;1.90;;;8.40;99.90;;;;;;5112312;28;20851;-72
2021/05/06 07:12:01;;;;;;;4.03;1.87;;;8.60;99.90;;;;;;5112618;28;20527;-72
2021/05/06 07:14:31;;;;;;;4.43;2.40;;;8.70;99.90;;;;;;5111475;28;20439;-71
2021/05/06 07:16:58;;;;;;;2.40;1.53;;;8.70;99.90;;;;;;5112213;28;20428;-72
2021/05/06 07:19:24;;;;;;;2.57;1.80;;;8.80;97.20;;;;;;5111706;28;20546;-72
2021/05/06 07:21:51;;;;;;;2.17;1.90;;;8.80;46.80;;;;;;5112185;28;20546;-72
2021/05/06 07:24:18;;;;;;;2.43;1.87;;;8.90;51.20;;;;;;5111353;28;20990;-74
2021/05/06 07:26:44;;;;;;;6.70;2.40;;;8.90;22.00;;;;;;5112299;28;20523;-72
2021/05/06 07:29:14;;;;;;;4.10;1.83;;;8.90;5.70;;;;;;5111253;28;20496;-72
2021/05/06 07:31:40;;;;;;;2.50;1.70;;;9.00;20.90;;;;;;5112259;28;20888;-72
2021/05/06 07:34:07;;;;;;;7.63;3.03;;;9.00;1.90;;;;;;5111568;28;20443;-72
2021/05/06 07:36:33;;;;;;;4.73;1.93;;;9.00;1.00;;;;;;5111884;28;20531;-72
2021/05/06 07:39:01;;;;;;;3.73;2.10;;;;;;;;;;5111884;28;20435;-72
2021/05/06 07:41:27;;;;;;;8.13;2.07;;;;;;;;;;5111538;28;20444;-72
2021/05/06 07:43:54;;;;;;;3.73;1.70;;;;;;;;;;5112207;28;20869;-72
2021/05/06 07:46:21;;;;;;;6.83;2.50;;;;;;;;;;5111123;28;20475;-72
2021/05/06 07:48:48;;;;;;;4.37;1.50;;;;;;;;;;5111981;28;20498;-73
2021/05/06 07:51:15;;;;;;;4.10;2.50;;;;;;;;;;5111403;28;20577;-73
2021/05/06 07:53:44;;;;;;;3.30;1.90;;;;;;;;;;5111564;28;20478;-72
2021/05/06 07:56:11;;;;;;;2.50;1.77;;;;;;;;;;5111408;28;20444;-73
2021/05/06 07:58:38;;;;;;;3.37;1.90;;;;;;;;;;5111492;28;20454;-72
2021/05/06 08:01:05;;;;;;;4.30;1.73;;;;;;;;;;5111661;28;21011;-72
2021/05/06 08:03:32;;;;;;;2.90;1.60;;;;;;;;;;5111893;28;20455;-73
2021/05/06 08:05:59;;;;;;;3.40;1.67;;;;;;;;;;5111380;28;20940;-73
2021/05/06 08:08:26;;;;;;;4.10;1.80;;;;;;;;;;5115681;28;20576;-74
2021/05/06 08:10:55;;;;;;;5.20;2.20;;;;;;;;;;5112029;28;20432;-73
2021/05/06 08:13:23;;;;;;;3.73;2.17;;;;;;;;;;5111478;28;20471;-72
2021/05/06 08:15:50;;;;;;;3.67;1.63;;;;;;;;;;5113495;28;20534;-73
2021/05/06 08:18:17;;;;;;;3.73;1.70;;;;;;;;;;5123095;28;20439;-72
2021/05/06 08:20:43;;;;;;;4.93;1.67;;;;;;;;;;5112309;28;20440;-73
2021/05/06 08:23:10;;;;;;;2.93;1.90;;;;;;;;;;5111436;28;20454;-72
2021/05/06 08:25:37;;;;;;;2.23;1.83;;;;;;;;;;5111599;28;21000;-73
2021/05/06 08:28:04;;;;;;;3.93;2.27;;;;;;;;;;5111616;28;20558;-72
2021/05/06 08:30:33;;;;;;;3.27;1.73;;;;;;;;;;5111019;28;20439;-72
2021/05/06 08:32:59;;;;;;;3.70;2.13;;;;;;;;;;5111514;28;20958;-74
2021/05/06 08:35:26;;;;;;;4.43;1.97;;;;;;;;;;5110978;28;20447;-73
2021/05/06 08:37:53;;;;;;;5.17;2.13;;;;;;;;;;5111494;28;20538;-72
2021/05/06 08:40:20;;;;;;;4.80;2.20;;;;;;;;;;5111067;28;20471;-72
2021/05/06 08:42:49;;;;;;;2.17;1.97;;;;;;;;;;5111201;28;20443;-73
2021/05/06 08:45:16;;;;;;;7.83;2.40;;;;;;;;;;5110329;28;20508;-73
2021/05/06 08:47:46;;;;;;;2.27;1.60;;;;;;;;;;5111420;28;20503;-72
2021/05/06 08:50:13;;;;;;;3.00;2.00;;;;;;;;;;5113015;28;20995;-73
2021/05/06 08:52:41;;;;;;;4.10;1.60;;;;;;;;;;5114765;28;20439;-72
2021/05/06 08:55:08;;;;;;;8.03;2.57;;;;;;;;;;5115255;28;20451;-73
2021/05/06 08:57:35;;;;;;;3.97;1.93;;;;;;;;;;5114606;28;20443;-73
2021/05/06 09:00:02;;;;;;;2.60;1.80;;;;;;;;;;5114646;28;20526;-73
2021/05/06 09:02:28;;;;;;;3.33;1.70;;;;;;;;;;5114642;28;20824;-73
2021/05/06 09:04:56;;;;;;;5.03;2.40;;;;;;;;;;5114530;28;20436;-73
2021/05/06 09:07:23;;;;;;;6.13;1.93;;;;;;;;;;5114238;28;20475;-72
2021/05/06 09:09:50;;;;;;;3.27;2.57;;;;;;;;;;5114979;28;20806;-73
2021/05/06 09:12:17;;;;;;;3.93;2.20;;;;;;;;;;5113977;28;20514;-72
2021/05/06 09:14:45;;;;;;;5.67;2.40;;;;;;;;;;5114407;28;20447;-71
2021/05/06 09:17:25;;;;;;;3.53;1.90;;;;;;;;;;5114304;28;20526;-70
2021/05/06 09:20:08;;;;;;;4.70;1.97;;;;;;;;;;5114918;28;20501;-73
2021/05/06 09:22:35;;;;;;;2.10;1.70;;;;;;;;;;5113746;28;20504;-73
2021/05/06 09:25:36;;;;;;;3.40;1.87;;;;;;;;;;5114576;28;20518;-73
2021/05/06 09:28:09;;;;;;;4.70;2.20;;;;;;;;;;5031459;28;20471;-72
2021/05/06 09:30:37;;;;;;;3.60;1.90;;;;;;;;;;5030593;28;20818;-73
2021/05/06 09:33:04;;;;;;;4.83;2.60;;;;;;;;;;5073109;28;20920;-73
2021/05/06 09:35:40;;;;;;;8.73;2.40;;;;;;;;;;5113638;28;20448;-73
2021/05/06 09:38:07;;;;;;;4.07;1.57;;;;;;;;;;5114403;28;20542;-73
2021/05/06 09:40:46;;;;;;;5.70;2.00;;;;;;;;;;5113677;28;20526;-73
2021/05/06 09:43:21;;;;;;;3.33;1.90;;;;;;;;;;5113610;28;20455;-70
2021/05/06 09:45:48;;;;;;;5.63;1.90;;;;;;;;;;5114099;28;20910;-72
2021/05/06 09:48:16;;;;;;;4.90;2.20;;;;;;;;;;5113474;28;20867;-73
2021/05/06 09:50:44;;;;;;;4.70;2.07;;;;;;;;;;5114185;28;20483;-74
2021/05/06 09:53:12;;;;;;;3.97;2.23;;;;;;;;;;5113946;28;20505;-74
2021/05/06 09:55:39;;;;;;;4.10;2.53;;;;;;;;;;5113604;28;20479;-73
2021/05/06 09:58:19;;;;;;;4.50;2.47;;;;;;;;;;5113548;28;20451;-73
2021/05/06 10:00:46;;;;;;;3.53;1.80;;;;;;;;;;5113539;28;20814;-72
2021/05/06 10:03:14;;;;;;;7.00;2.10;;;;;;;;;;5113692;28;20542;-73
2021/05/06 10:05:41;;;;;;;4.70;2.43;;;;;;;;;;5113741;28;20526;-73
2021/05/06 10:08:09;;;;;;;5.20;2.03;;;;;;;;;;5113326;28;20483;-73
2021/05/06 10:10:36;;;;;;;5.13;2.80;;;;;;;;;;5112693;28;21011;-73
2021/05/06 10:13:04;;;;;;;4.53;1.70;;;;;;;;;;5113519;28;20440;-73
2021/05/06 10:15:31;;;;;;;4.27;2.10;;;;;;;;;;5112338;28;20478;-73
2021/05/06 10:17:58;;;;;;;2.80;1.97;;;;;;;;;;5113406;28;20526;-73
2021/05/06 10:20:26;;;;;;;3.83;1.60;;;;;;;;;;5112539;28;20440;-73
2021/05/06 10:22:52;;;;;;;6.47;3.00;;;;;;;;;;5113074;28;20446;-73
2021/05/06 10:25:22;;;;;;;3.43;1.57;;;;;;;;;;5112683;28;20534;-73
2021/05/06 10:27:50;;;;;;;4.60;2.00;;;;;;;;;;5113052;28;20857;-74
2021/05/06 10:30:17;;;;;;;4.57;2.70;;;;;;;;;;5112629;28;20490;-73
2021/05/06 10:32:45;;;;;;;3.67;2.30;;;;;;;;;;5112808;28;20440;-73
2021/05/06 10:35:13;;;;;;;3.43;1.80;;;;;;;;;;5112758;28;20580;-73
2021/05/06 10:37:41;;;;;;;3.97;2.30;;;;;;;;;;5112113;28;20570;-72
2021/05/06 10:40:23;;;;;;;5.47;1.83;;;;;;;;;;5112522;28;20535;-72
2021/05/06 10:42:51;;;;;;;2.83;1.90;;;;;;;;;;5113106;28;20434;-73
2021/05/06 10:45:32;;;;;;;2.90;2.00;;;;;;;;;;5112093;28;20542;-72
2021/05/06 10:47:59;;;;;;;3.53;2.20;;;;;;;;;;5112921;28;20467;-73
2021/05/06 10:50:26;;;;;;;5.93;2.20;;;;;;;;;;5112400;28;20450;-73
2021/05/06 10:52:53;;;;;;;5.27;2.30;;;;;;;;;;5112355;28;20444;-72
2021/05/06 10:55:40;;;;;;;6.30;1.77;;;;;;;;;;5112130;28;20500;-72
2021/05/06 10:58:34;;;;;;;4.50;1.80;;;;;;;;;;5112571;28;20483;-73
2021/05/06 11:01:30;;;;;;;2.80;1.60;;;;;;;;;;5112538;28;20467;-73
2021/05/06 11:04:07;;;;;;;2.20;1.17;;;;;;;;;;5112693;28;20807;-73
2021/05/06 11:06:44;;;;;;;4.87;2.73;;;;;;;;;;5111763;28;20434;-73
2021/05/06 11:09:43;;;;;;;3.60;1.10;;;;;;;;;;5112354;28;20471;-72
2021/05/06 11:12:22;;;;;;;1.53;1.30;;;;;;;;;;5111974;28;20428;-72
2021/05/06 11:15:07;;;;;;;2.53;1.50;;;;;;;;;;5112184;28;20817;-72
2021/05/06 11:17:42;;;;;;;1.90;1.30;;;;;;;;;;5111871;28;20475;-73
2021/05/06 11:20:23;;;;;;;1.57;1.27;;;;;;;;;;5112116;28;20441;-73
2021/05/06 11:22:53;;;;;;;5.00;1.70;;;;;;;;;;5111369;28;20439;-73
2021/05/06 11:25:39;;;;;;;1.70;1.37;;;;;;;;;;5112111;28;20839;-73
2021/05/06 11:28:06;;;;;;;1.53;1.30;;;;;;;;;;5112246;28;20479;-72
2021/05/06 11:30:34;;;;;;;1.57;1.40;;;;;;;;;;5111647;28;20438;-73
2021/05/06 11:33:16;;;;;;;3.93;1.50;;;;;;;;;;5111900;28;20432;-73
2021/05/06 11:35:55;;;;;;;2.60;1.30;;;;;;;;;;5110797;28;20515;-73
2021/05/06 11:38:21;;;;;;;1.10;0.80;;;;;;;;;;5111953;28;20522;-73
2021/05/06 11:40:48;;;;;;;1.40;1.20;;;;;;;;;;5111906;28;20465;-73
2021/05/06 11:43:21;;;;;;;1.33;1.10;;;;;;;;;;5112073;28;20486;-72
2021/05/06 11:45:48;;;;;;;1.40;1.10;;;;;;;;;;5112101;28;20506;-73
2021/05/06 11:48:16;;;;;;;1.37;1.10;;;;;;;;;;5111833;28;20471;-72
2021/05/06 11:50:45;;;;;;;1.30;1.10;;;;;;;;;;5111542;28;20447;-72
2021/05/06 11:53:16;;;;;;;1.57;1.17;;;;;;;;;;5111728;28;20440;-73
2021/05/06 11:55:44;;;;;;;1.30;0.97;;;;;;;;;;5111283;28;20460;-73
2021/05/06 11:58:11;;;;;;;2.40;1.33;;;;;;;;;;5112104;28;20447;-72
2021/05/06 12:00:40;;;;;;;3.10;1.37;;;;;;;;;;5111629;28;20859;-73
2021/05/06 12:03:07;;;;;;;0.73;0.70;;;;;;;;;;5112310;28;20465;-73
2021/05/06 12:05:50;;;;;;;1.53;1.00;;;;;;;;;;5111140;28;20539;-73
2021/05/06 12:08:17;;;;;;;1.40;1.10;;;;;;;;;;5112035;28;20562;-74
2021/05/06 12:10:44;;;;;;;1.53;0.80;;;;;;;;;;5111346;28;20439;-73
2021/05/06 12:13:11;;;;;;;1.67;0.70;;;;;;;;;;5111805;28;20450;-73
2021/05/06 12:15:38;;;;;;;1.43;1.10;;;;;;;;;;5111202;28;20532;-74
2021/05/06 12:18:18;;;;;;;2.30;1.07;;;;;;;;;;5111607;28;20443;-72
2021/05/06 12:20:48;;;;;;;1.50;1.20;;;;;;;;;;5111202;28;20831;-73
2021/05/06 12:23:15;;;;;;;1.87;1.13;;;;;;;;;;5112942;28;20467;-73
2021/05/06 12:25:42;;;;;;;1.10;0.93;;;;;;;;;;5115029;28;20518;-73
2021/05/06 12:28:09;;;;;;;1.23;0.83;;;;;;;;;;5115533;28;20507;-73
2021/05/06 12:30:36;;;;;;;1.20;0.90;;;;;;;;;;5115198;28;20526;-73
2021/05/06 12:33:03;;;;;;;2.03;0.80;;;;;;;;;;5115738;28;20496;-75
2021/05/06 12:35:29;;;;;;;1.80;1.07;;;;;;;;;;5115457;28;21000;-74
2021/05/06 12:37:56;;;;;;;0.90;0.83;;;;;;;;;;5115529;28;20483;-72
2021/05/06 12:40:26;;;;;;;0.80;0.80;;;;;;;;;;5114759;28;20978;-69
2021/05/06 12:42:54;;;;;;;0.93;0.80;;;;;;;;;;5114927;28;20419;-72
2021/05/06 12:45:27;;;;;;;1.50;0.90;;;;;;;;;;5114836;28;20478;-73
2021/05/06 12:47:54;;;;;;;1.53;1.27;;;;;;;;;;5114911;28;21363;-73
2021/05/06 12:50:22;;;;;;;1.57;1.17;;;;;;;;;;5115186;28;20469;-72
2021/05/06 12:52:49;;;;;;;1.13;0.97;;;;;;;;;;5114941;28;20462;-72
2021/05/06 12:55:20;;;;;;;1.10;1.00;;;;;;;;;;5115292;28;20542;-74
2021/05/06 12:57:47;;;;;;;1.00;0.80;;;;;;;;;;5114751;28;20497;-72
2021/05/06 13:00:18;;;;;;;1.90;1.17;;;;;;;;;;5114883;28;20505;-73
2021/05/06 13:02:45;;;;;;;1.50;1.40;;;;;;;;;;5114679;28;20901;-73
2021/05/06 13:05:13;;;;;;;1.20;1.00;;;;;;;;;;5115227;28;20467;-73
2021/05/06 13:07:50;;;;;;;2.27;1.77;;;;;;;;;;5116195;28;20558;-73
2021/05/06 13:10:32;;;;;;;1.23;1.13;;;;;;;;;;5122545;28;20449;-72
2021/05/06 13:12:58;;;;;;;1.50;1.37;;;;;;;;;;5114814;28;20530;-73
2021/05/06 13:15:26;;;;;;;2.00;1.03;;;;;;;;;;5115067;28;20862;-69
2021/05/06 13:17:55;;;;;;;3.80;1.20;;;;;;;;;;5115526;28;20490;-71
2021/05/06 13:20:22;;;;;;;2.30;1.13;;;;;;;;;;5115653;28;20439;-72
2021/05/06 13:22:59;;;;;;;1.77;1.40;;;;;;;;;;5113945;28;20522;-71
2021/05/06 13:25:39;;;;;;;1.43;1.20;;;;;;;;;;5114682;28;20531;-73
2021/05/06 13:28:06;;;;;;;2.00;1.00;;;;;;;;;;5114653;28;20468;-73
2021/05/06 13:30:34;;;;;;;1.47;1.10;;;;;;;;;;5114000;28;20448;-71
2021/05/06 13:33:12;;;;;;;2.00;1.23;;;;;;;;;;5114146;28;20518;-71
2021/05/06 13:35:38;;;;;;;1.93;1.73;;;;;;;;;;5113050;28;20447;-71
2021/05/06 13:38:05;;;;;;;1.83;1.73;;;;;;;;;;5113804;28;20474;-71
2021/05/06 13:40:32;;;;;;;1.40;1.30;;;;;;;;;;5113731;28;20467;-72
2021/05/06 13:42:58;;;;;;;1.67;1.57;;;;;;;;;;5114368;28;20466;-72
2021/05/06 13:45:25;;;;;;;1.67;1.53;;;;;;;;;;5113799;28;20566;-72
2021/05/06 13:47:53;;;;;;;1.80;1.50;;;;;;;;;;5113775;28;20459;-72
2021/05/06 13:50:20;;;;;;;3.13;1.70;;;;;;;;;;5113875;28;20534;-72
2021/05/06 13:52:46;;;;;;;1.70;1.57;;;;;;;;;;5113169;28;20518;-72
2021/05/06 13:55:14;;;;;;;4.70;1.77;;;;;;;;;;5113823;28;20491;-72
2021/05/06 13:57:42;;;;;;;3.27;2.13;;;;;;;;;;5113043;28;20436;-73
2021/05/06 14:00:10;;;;;;;3.20;1.80;;;;;;;;;;5113900;28;20443;-73
2021/05/06 14:02:37;;;;;;;2.13;1.70;;;;;;;;;;5112781;28;20515;-72
2021/05/06 14:05:05;;;;;;;2.20;1.93;;;;;;;;;;5113461;28;20442;-73
2021/05/06 14:07:32;;;;;;;3.57;1.63;;;;;;;;;;5112949;28;20439;-72
2021/05/06 14:09:58;;;;;;;5.73;2.17;;;;;;;;;;5113388;28;20479;-72
2021/05/06 14:12:25;;;;;;;2.17;1.97;;;;;;;;;;5113294;28;20523;-71
2021/05/06 14:14:52;;;;;;;1.80;1.70;;;;;;;;;;5112988;28;20500;-72
2021/05/06 14:17:18;;;;;;;5.10;1.70;;;;;;;;;;5113530;28;20457;-73
2021/05/06 14:19:45;;;;;;;2.30;1.90;;;;;;;;;;5112826;28;20518;-73
2021/05/06 14:22:12;;;;;;;3.33;2.30;;;;;;;;;;5113081;28;20523;-72
2021/05/06 14:24:39;;;;;;;4.20;1.63;;;;;;;;;;5112574;28;20534;-72
2021/05/06 14:27:06;;;;;;;5.83;2.80;;;;;;;;;;5113152;28;20442;-72
2021/05/06 14:29:33;;;;;;;1.60;1.50;;;;;;;;;;5112416;28;20476;-72
2021/05/06 14:31:59;;;;;;;1.87;1.50;;;;;;;;;;5113011;28;20522;-73
2021/05/06 14:34:26;;;;;;;1.73;1.20;;;;;;;;;;5113064;28;20435;-71
2021/05/06 14:36:53;;;;;;;1.53;1.43;;;;;;;;;;5112390;28;20447;-71
2021/05/06 14:39:20;;;;;;;1.43;1.33;;;;;;;;;;5113050;28;20435;-71
2021/05/06 14:41:47;;;;;;;2.07;1.70;;;;;;;;;;5112430;28;20435;-71
2021/05/06 14:44:14;;;;;;;2.37;1.33;;;;;;;;;;5112905;28;20445;-71
2021/05/06 14:46:40;;;;;;;2.10;1.10;;;;;;;;;;5110796;28;20563;-73
2021/05/06 14:49:07;;;;;;;1.47;1.37;;;;;;;;;;5112518;28;20545;-73
2021/05/06 14:51:34;;;;;;;2.30;1.63;;;;;;;;;;5112130;28;20857;-72
2021/05/06 14:54:00;;;;;;;1.17;1.03;;;;;;;;;;5112793;28;20443;-74
2021/05/06 14:56:28;;;;;;;4.87;1.10;;;;;;;;;;5112805;28;20874;-72
2021/05/06 14:58:55;;;;;;;0.77;0.77;;;;;;;;;;5111978;28;20512;-73
2021/05/06 15:01:22;;;;;;;1.23;0.90;;;;;;;;;;5112428;28;20461;-73
2021/05/06 15:03:48;;;;;;;2.00;1.23;;;;;;;;;;5111884;28;20570;-71
2021/05/06 15:06:15;;;;;;;1.60;1.07;;;;;;;;;;5112734;28;20534;-71
2021/05/06 15:08:43;;;;;;;4.87;1.10;;;;;;;;;;5111628;28;20475;-72
2021/05/06 15:11:11;;;;;;;1.63;1.10;;;;;;;;;;5112532;28;20443;-73
2021/05/06 15:13:38;;;;;;;6.70;4.00;;;;;;;;;;5111976;28;20466;-72
2021/05/06 15:16:05;;;;;;;1.83;1.50;;;;;;;;;;5112302;28;21038;-72
2021/05/06 15:18:32;;;;;;;3.97;2.97;;;;;;;;;;5112646;28;20448;-68
2021/05/06 15:20:59;;;;;;;4.07;3.77;;;;;;;;;;5112333;28;20451;-73
2021/05/06 15:23:26;;;;;;;2.07;1.20;;;;;;;;;;5111861;28;20526;-74
2021/05/06 15:25:52;;;;;;;1.77;1.60;;;;;;;;;;5111563;28;20453;-73
2021/05/06 15:28:19;;;;;;;1.03;0.93;;;;;;;;;;5111869;28;21028;-73
2021/05/06 15:30:48;;;;;;;2.30;2.00;;;;;;;;;;5111424;28;20490;-74
2021/05/06 15:33:16;;;;;;;1.63;1.10;;;;;;;;;;5112029;28;20442;-74
2021/05/06 15:35:43;;;;;;;3.00;1.10;;;;;;;;;;5111407;28;20810;-74
2021/05/06 15:38:10;;;;;;;1.30;1.00;;;;;;;;;;5112007;28;20530;-74
2021/05/06 15:40:39;;;;;;;4.87;1.70;;;;;;;;;;5110967;28;20531;-74
2021/05/06 15:43:07;;;;;;;3.83;1.20;;;;;;;;;;5111866;28;20495;-74
2021/05/06 15:45:34;;;;;;;1.33;1.10;;;;;;;;;;5111606;28;20483;-73
2021/05/06 15:48:02;;;;;;;1.60;1.30;;;;;;;;;;5111745;28;20478;-73
2021/05/06 15:50:28;;;;;;;2.53;1.20;;;;;;;;;;5111723;28;20885;-73
2021/05/06 15:52:55;;;;;;;1.70;1.10;;;;;;;;;;5111283;28;20935;-74
2021/05/06 15:55:22;;;;;;;1.33;1.20;;;;;;;;;;5111584;28;20459;-74
2021/05/06 15:57:49;;;;;;;1.20;1.00;;;;;;;;;;5110620;28;20478;-74
2021/05/06 16:00:16;;;;;;;1.60;1.00;;;;;;;;;;5111648;28;20447;-74
2021/05/06 16:02:45;;;;;;;1.23;1.10;;;;;;;;;;5110455;28;20444;-74
2021/05/06 16:05:18;;;;;;;3.07;1.53;;;;;;;;;;5111444;28;20492;-73
2021/05/06 16:07:45;;;;;;;3.40;1.30;;;;;;;;;;5110878;28;20510;-75
2021/05/06 16:10:12;;;;;;;3.27;1.13;;;;;;;;;;5111585;28;20906;-74
2021/05/06 16:12:39;;;;;;;1.10;0.80;;;;;;;;;;5110578;28;20427;-74
2021/05/06 16:15:06;;;;;;;1.97;1.40;;;9.10;1.00;;;;;;5111214;28;20483;-73
2021/05/06 16:17:33;;;;;;;1.47;1.30;;;;;;;;;;5111624;28;20869;-74
2021/05/06 16:20:02;;;;;;;1.43;1.20;;;;;;;;;;5110855;28;20446;-73
2021/05/06 16:22:29;;;;;;;1.80;1.60;;;;;;;;;;5111132;28;20458;-73
2021/05/06 16:24:56;;;;;;;1.80;1.20;;;;;;;;;;5110845;28;20740;-74
2021/05/06 16:27:24;;;;;;;1.73;1.30;;;;;;;;;;5111443;28;20432;-73